sensor_id;sensor_type;location;lat;lon;timestamp;temperature;humidity
52189;DHT22;38162;45.926;13.608;2023-02-02T19:28:32;6.70;91.80
52189;DHT22;38162;45.926;13.608;2023-02-02T19:30:59;6.70;92.00
52189;DHT22;38162;45.926;13.608;2023-02-02T19:36:32;6.70;91.70
52189;DHT22;38162;45.926;13.608;2023-02-02T19:39:12;6.70;91.60
52189;DHT22;38162;45.926;13.608;2023-02-02T19:41:39;6.70;91.50
52189;DHT22;38162;45.926;13.608;2023-02-02T19:44:13;6.60;91.50
52189;DHT22;38162;45.926;13.608;2023-02-02T19:46:44;6.60;91.60
52189;DHT22;38162;45.926;13.608;2023-02-02T19:49:14;6.60;91.60
52189;DHT22;38162;45.926;13.608;2023-02-02T19:51:54;6.50;91.50
52189;DHT22;38162;45.926;13.608;2023-02-02T19:59:38;6.40;91.50
52189;DHT22;38162;45.926;13.608;2023-02-02T20:02:24;6.40;91.30
52189;DHT22;38162;45.926;13.608;2023-02-02T20:05:16;6.40;91.40
52189;DHT22;38162;45.926;13.608;2023-02-02T20:07:42;6.30;91.50
52189;DHT22;38162;45.926;13.608;2023-02-02T20:16:21;6.30;91.50
52189;DHT22;38162;45.926;13.608;2023-02-02T20:18:50;6.20;91.30
52189;DHT22;38162;45.926;13.608;2023-02-02T20:21:42;6.20;91.30
52189;DHT22;38162;45.926;13.608;2023-02-02T20:24:21;6.20;91.40
52189;DHT22;38162;45.926;13.608;2023-02-02T20:26:47;6.10;91.40
52189;DHT22;38162;45.926;13.608;2023-02-02T20:31:43;6.00;91.40
52189;DHT22;38162;45.926;13.608;2023-02-02T20:34:28;6.10;91.50
52189;DHT22;38162;45.926;13.608;2023-02-02T20:37:11;6.00;91.60
52189;DHT22;38162;45.926;13.608;2023-02-02T20:40:00;6.00;91.50
52189;DHT22;38162;45.926;13.608;2023-02-02T20:42:26;5.90;91.80
52189;DHT22;38162;45.926;13.608;2023-02-02T20:44:53;6.00;91.60
52189;DHT22;38162;45.926;13.608;2023-02-02T20:47:19;5.90;91.60
52189;DHT22;38162;45.926;13.608;2023-02-02T20:49:45;5.90;91.60
52189;DHT22;38162;45.926;13.608;2023-02-02T20:52:14;5.90;91.60
52189;DHT22;38162;45.926;13.608;2023-02-02T20:54:46;5.90;91.60
52189;DHT22;38162;45.926;13.608;2023-02-02T20:57:12;5.90;91.60
52189;DHT22;38162;45.926;13.608;2023-02-02T20:59:38;5.80;91.50
52189;DHT22;38162;45.926;13.608;2023-02-02T21:02:04;5.80;91.60
52189;DHT22;38162;45.926;13.608;2023-02-02T21:04:30;5.80;91.50
52189;DHT22;38162;45.926;13.608;2023-02-02T21:06:56;5.70;91.40
52189;DHT22;38162;45.926;13.608;2023-02-02T21:09:24;5.70;91.40
52189;DHT22;38162;45.926;13.608;2023-02-02T21:11:51;5.70;91.40
52189;DHT22;38162;45.926;13.608;2023-02-02T21:14:17;5.60;91.40
52189;DHT22;38162;45.926;13.608;2023-02-02T21:16:43;5.60;91.40
52189;DHT22;38162;45.926;13.608;2023-02-02T21:19:09;5.60;91.40
52189;DHT22;38162;45.926;13.608;2023-02-02T21:21:34;5.50;91.50
52189;DHT22;38162;45.926;13.608;2023-02-02T21:24:00;5.60;91.50
52189;DHT22;38162;45.926;13.608;2023-02-02T21:26:26;5.50;91.40
52189;DHT22;38162;45.926;13.608;2023-02-02T21:28:55;5.50;91.40
52189;DHT22;38162;45.926;13.608;2023-02-02T21:31:21;5.50;91.40
52189;DHT22;38162;45.926;13.608;2023-02-02T21:33:48;5.50;91.30
52189;DHT22;38162;45.926;13.608;2023-02-02T21:36:42;5.40;91.30
52189;DHT22;38162;45.926;13.608;2023-02-02T21:39:26;5.40;91.20
52189;DHT22;38162;45.926;13.608;2023-02-02T21:44:38;5.30;91.20
52189;DHT22;38162;45.926;13.608;2023-02-02T21:47:28;5.30;91.30
52189;DHT22;38162;45.926;13.608;2023-02-02T21:50:03;5.30;91.40
52189;DHT22;38162;45.926;13.608;2023-02-02T21:52:35;5.20;91.30
52189;DHT22;38162;45.926;13.608;2023-02-02T21:55:32;5.20;91.40
52189;DHT22;38162;45.926;13.608;2023-02-02T21:58:07;5.20;91.60
52189;DHT22;38162;45.926;13.608;2023-02-02T22:00:35;5.10;91.60
52189;DHT22;38162;45.926;13.608;2023-02-02T22:03:01;5.20;91.70
52189;DHT22;38162;45.926;13.608;2023-02-02T22:05:34;5.20;91.80
52189;DHT22;38162;45.926;13.608;2023-02-02T22:08:17;5.20;92.10
52189;DHT22;38162;45.926;13.608;2023-02-02T22:10:46;5.10;91.80
52189;DHT22;38162;45.926;13.608;2023-02-02T22:13:18;5.10;91.70
52189;DHT22;38162;45.926;13.608;2023-02-02T22:15:45;5.10;91.70
52189;DHT22;38162;45.926;13.608;2023-02-02T22:18:18;5.10;91.70
52189;DHT22;38162;45.926;13.608;2023-02-02T22:20:46;5.00;91.70
52189;DHT22;38162;45.926;13.608;2023-02-02T22:23:21;5.00;91.70
52189;DHT22;38162;45.926;13.608;2023-02-02T22:25:48;5.00;91.80
52189;DHT22;38162;45.926;13.608;2023-02-02T22:30:50;5.00;91.80
52189;DHT22;38162;45.926;13.608;2023-02-02T22:33:16;4.90;91.70
52189;DHT22;38162;45.926;13.608;2023-02-02T22:35:42;5.00;91.80
52189;DHT22;38162;45.926;13.608;2023-02-02T22:38:09;4.90;91.80
52189;DHT22;38162;45.926;13.608;2023-02-02T22:40:35;4.90;91.70
52189;DHT22;38162;45.926;13.608;2023-02-02T22:43:05;4.80;91.70
52189;DHT22;38162;45.926;13.608;2023-02-02T22:45:32;4.80;91.90
52189;DHT22;38162;45.926;13.608;2023-02-02T22:47:58;4.80;92.00
52189;DHT22;38162;45.926;13.608;2023-02-02T22:50:27;4.80;92.10
52189;DHT22;38162;45.926;13.608;2023-02-02T22:52:53;4.80;92.20
52189;DHT22;38162;45.926;13.608;2023-02-02T22:55:19;4.80;92.30
52189;DHT22;38162;45.926;13.608;2023-02-02T22:57:45;4.80;92.50
52189;DHT22;38162;45.926;13.608;2023-02-02T23:00:17;4.80;92.70
52189;DHT22;38162;45.926;13.608;2023-02-02T23:02:43;4.80;92.80
52189;DHT22;38162;45.926;13.608;2023-02-02T23:05:10;4.80;92.90
52189;DHT22;38162;45.926;13.608;2023-02-02T23:07:37;4.80;93.00
52189;DHT22;38162;45.926;13.608;2023-02-02T23:10:05;4.80;93.00
52189;DHT22;38162;45.926;13.608;2023-02-02T23:12:31;4.90;93.10
52189;DHT22;38162;45.926;13.608;2023-02-02T23:14:56;4.90;92.90
52189;DHT22;38162;45.926;13.608;2023-02-02T23:17:22;4.90;92.70
52189;DHT22;38162;45.926;13.608;2023-02-02T23:19:48;4.90;92.60
52189;DHT22;38162;45.926;13.608;2023-02-02T23:22:14;4.80;92.60
52189;DHT22;38162;45.926;13.608;2023-02-02T23:24:39;4.80;92.60
52189;DHT22;38162;45.926;13.608;2023-02-02T23:27:05;4.80;92.60
52189;DHT22;38162;45.926;13.608;2023-02-02T23:29:31;4.80;92.50
52189;DHT22;38162;45.926;13.608;2023-02-02T23:31:56;4.80;92.50
52189;DHT22;38162;45.926;13.608;2023-02-02T23:34:22;4.80;92.40
52189;DHT22;38162;45.926;13.608;2023-02-02T23:36:48;4.70;92.40
52189;DHT22;38162;45.926;13.608;2023-02-02T23:39:14;4.70;92.30
52189;DHT22;38162;45.926;13.608;2023-02-02T23:41:40;4.70;92.30
52189;DHT22;38162;45.926;13.608;2023-02-02T23:44:05;4.70;92.30
52189;DHT22;38162;45.926;13.608;2023-02-02T23:46:31;4.70;92.30
52189;DHT22;38162;45.926;13.608;2023-02-02T23:48:58;4.60;92.20
52189;DHT22;38162;45.926;13.608;2023-02-02T23:51:25;4.60;92.30
52189;DHT22;38162;45.926;13.608;2023-02-02T23:53:51;4.60;92.30
52189;DHT22;38162;45.926;13.608;2023-02-02T23:56:17;4.60;92.40
52189;DHT22;38162;45.926;13.608;2023-02-02T23:58:42;4.60;92.50
